sensor_id;sensor_type;location;lat;lon;timestamp;temperature;humidity
20957;DHT22;10637;47.970;7.830;2024-01-27T00:03:45;5.90;99.90
20957;DHT22;10637;47.970;7.830;2024-01-27T00:08:47;5.90;99.90
20957;DHT22;10637;47.970;7.830;2024-01-27T00:13:49;6.00;99.90
20957;DHT22;10637;47.970;7.830;2024-01-27T00:18:51;6.10;99.90
20957;DHT22;10637;47.970;7.830;2024-01-27T00:23:53;6.10;99.90
20957;DHT22;10637;47.970;7.830;2024-01-27T00:28:55;5.90;99.90
20957;DHT22;10637;47.970;7.830;2024-01-27T00:33:57;6.00;99.90
20957;DHT22;10637;47.970;7.830;2024-01-27T00:38:59;5.90;99.90
20957;DHT22;10637;47.970;7.830;2024-01-27T00:44:01;5.90;99.90
20957;DHT22;10637;47.970;7.830;2024-01-27T00:49:03;5.70;99.90
20957;DHT22;10637;47.970;7.830;2024-01-27T00:54:05;5.50;99.90
20957;DHT22;10637;47.970;7.830;2024-01-27T00:59:07;5.40;99.90
20957;DHT22;10637;47.970;7.830;2024-01-27T01:04:09;5.10;99.90
20957;DHT22;10637;47.970;7.830;2024-01-27T01:09:10;5.10;99.90
20957;DHT22;10637;47.970;7.830;2024-01-27T01:14:12;5.00;99.90
20957;DHT22;10637;47.970;7.830;2024-01-27T01:19:14;4.70;99.90
20957;DHT22;10637;47.970;7.830;2024-01-27T01:24:17;4.60;99.90
20957;DHT22;10637;47.970;7.830;2024-01-27T01:29:18;4.40;99.90
20957;DHT22;10637;47.970;7.830;2024-01-27T01:34:20;4.50;99.90
20957;DHT22;10637;47.970;7.830;2024-01-27T01:39:22;4.50;99.90
20957;DHT22;10637;47.970;7.830;2024-01-27T01:44:29;4.60;99.90
20957;DHT22;10637;47.970;7.830;2024-01-27T01:49:31;4.30;99.90
20957;DHT22;10637;47.970;7.830;2024-01-27T01:54:33;4.20;99.90
20957;DHT22;10637;47.970;7.830;2024-01-27T01:59:35;4.10;99.90
20957;DHT22;10637;47.970;7.830;2024-01-27T02:04:43;4.00;99.90
20957;DHT22;10637;47.970;7.830;2024-01-27T02:09:45;4.10;99.90
20957;DHT22;10637;47.970;7.830;2024-01-27T02:14:47;3.90;99.90
20957;DHT22;10637;47.970;7.830;2024-01-27T02:19:48;3.90;99.90
20957;DHT22;10637;47.970;7.830;2024-01-27T02:24:50;3.80;99.90
20957;DHT22;10637;47.970;7.830;2024-01-27T02:29:53;3.80;99.90
20957;DHT22;10637;47.970;7.830;2024-01-27T02:34:55;3.80;99.90
20957;DHT22;10637;47.970;7.830;2024-01-27T02:39:56;3.80;99.90
20957;DHT22;10637;47.970;7.830;2024-01-27T02:44:58;3.80;99.90
20957;DHT22;10637;47.970;7.830;2024-01-27T02:50:00;3.70;99.90
20957;DHT22;10637;47.970;7.830;2024-01-27T02:55:02;3.50;99.90
20957;DHT22;10637;47.970;7.830;2024-01-27T03:00:04;3.30;99.90
20957;DHT22;10637;47.970;7.830;2024-01-27T03:05:07;3.20;99.90
20957;DHT22;10637;47.970;7.830;2024-01-27T03:10:09;3.10;99.90
20957;DHT22;10637;47.970;7.830;2024-01-27T03:15:12;3.30;99.90
20957;DHT22;10637;47.970;7.830;2024-01-27T03:20:14;3.40;99.90
20957;DHT22;10637;47.970;7.830;2024-01-27T03:25:16;3.20;99.90
20957;DHT22;10637;47.970;7.830;2024-01-27T03:30:17;3.20;99.90
20957;DHT22;10637;47.970;7.830;2024-01-27T03:35:19;3.10;99.90
20957;DHT22;10637;47.970;7.830;2024-01-27T03:40:21;3.00;99.90
20957;DHT22;10637;47.970;7.830;2024-01-27T03:45:23;3.10;99.90
20957;DHT22;10637;47.970;7.830;2024-01-27T03:50:25;3.10;99.90
20957;DHT22;10637;47.970;7.830;2024-01-27T03:55:26;3.00;99.90
20957;DHT22;10637;47.970;7.830;2024-01-27T04:00:28;2.80;99.90
20957;DHT22;10637;47.970;7.830;2024-01-27T04:05:34;2.70;99.90
20957;DHT22;10637;47.970;7.830;2024-01-27T04:10:36;2.70;99.90
20957;DHT22;10637;47.970;7.830;2024-01-27T04:15:38;2.70;99.90
20957;DHT22;10637;47.970;7.830;2024-01-27T04:20:40;2.60;99.90
20957;DHT22;10637;47.970;7.830;2024-01-27T04:25:43;2.50;99.90
20957;DHT22;10637;47.970;7.830;2024-01-27T04:30:45;2.40;99.90
20957;DHT22;10637;47.970;7.830;2024-01-27T04:35:47;2.50;99.90
20957;DHT22;10637;47.970;7.830;2024-01-27T04:40:50;2.50;99.90
20957;DHT22;10637;47.970;7.830;2024-01-27T04:45:52;2.60;99.90
20957;DHT22;10637;47.970;7.830;2024-01-27T04:50:53;2.60;99.90
20957;DHT22;10637;47.970;7.830;2024-01-27T04:55:55;2.40;99.90
20957;DHT22;10637;47.970;7.830;2024-01-27T05:00:57;2.40;99.90
20957;DHT22;10637;47.970;7.830;2024-01-27T05:05:59;2.30;99.90
20957;DHT22;10637;47.970;7.830;2024-01-27T05:11:01;2.10;99.90
20957;DHT22;10637;47.970;7.830;2024-01-27T05:16:03;2.20;99.90
20957;DHT22;10637;47.970;7.830;2024-01-27T05:21:05;2.10;99.90
20957;DHT22;10637;47.970;7.830;2024-01-27T05:26:06;2.00;99.90
20957;DHT22;10637;47.970;7.830;2024-01-27T05:31:08;2.00;99.90
20957;DHT22;10637;47.970;7.830;2024-01-27T05:36:10;2.00;99.90
20957;DHT22;10637;47.970;7.830;2024-01-27T05:41:12;2.00;99.90
20957;DHT22;10637;47.970;7.830;2024-01-27T05:46:14;2.00;99.90
20957;DHT22;10637;47.970;7.830;2024-01-27T05:51:16;2.00;99.90
20957;DHT22;10637;47.970;7.830;2024-01-27T05:56:18;2.10;99.90
20957;DHT22;10637;47.970;7.830;2024-01-27T06:01:23;2.20;99.90
20957;DHT22;10637;47.970;7.830;2024-01-27T06:06:24;1.80;99.90
20957;DHT22;10637;47.970;7.830;2024-01-27T06:11:26;1.80;99.90
20957;DHT22;10637;47.970;7.830;2024-01-27T06:16:28;1.70;99.90
20957;DHT22;10637;47.970;7.830;2024-01-27T06:21:30;1.90;99.90
20957;DHT22;10637;47.970;7.830;2024-01-27T06:26:32;2.00;99.90
20957;DHT22;10637;47.970;7.830;2024-01-27T06:31:34;2.10;99.90
20957;DHT22;10637;47.970;7.830;2024-01-27T06:36:36;2.10;99.90
20957;DHT22;10637;47.970;7.830;2024-01-27T06:41:37;2.20;99.90
20957;DHT22;10637;47.970;7.830;2024-01-27T06:46:39;2.00;99.90
20957;DHT22;10637;47.970;7.830;2024-01-27T06:51:41;1.90;99.90
20957;DHT22;10637;47.970;7.830;2024-01-27T06:56:43;2.00;99.90
20957;DHT22;10637;47.970;7.830;2024-01-27T07:01:48;1.90;99.90
20957;DHT22;10637;47.970;7.830;2024-01-27T07:06:50;1.70;99.90
20957;DHT22;10637;47.970;7.830;2024-01-27T07:11:52;2.00;99.90
20957;DHT22;10637;47.970;7.830;2024-01-27T07:16:54;1.90;99.90
20957;DHT22;10637;47.970;7.830;2024-01-27T07:21:56;1.80;99.90
20957;DHT22;10637;47.970;7.830;2024-01-27T07:27:00;2.00;99.90
20957;DHT22;10637;47.970;7.830;2024-01-27T07:32:02;1.90;99.90
20957;DHT22;10637;47.970;7.830;2024-01-27T07:37:04;1.80;99.90
20957;DHT22;10637;47.970;7.830;2024-01-27T07:42:06;1.80;99.90
20957;DHT22;10637;47.970;7.830;2024-01-27T07:47:08;1.80;99.90
20957;DHT22;10637;47.970;7.830;2024-01-27T07:52:13;2.00;99.90
20957;DHT22;10637;47.970;7.830;2024-01-27T07:57:14;2.00;99.90
20957;DHT22;10637;47.970;7.830;2024-01-27T08:02:16;2.10;99.90
20957;DHT22;10637;47.970;7.830;2024-01-27T08:07:18;2.20;99.90
20957;DHT22;10637;47.970;7.830;2024-01-27T08:12:20;2.20;99.90
20957;DHT22;10637;47.970;7.830;2024-01-27T08:17:22;2.20;99.90
20957;DHT22;10637;47.970;7.830;2024-01-27T08:22:23;2.00;99.90
20957;DHT22;10637;47.970;7.830;2024-01-27T08:27:25;2.20;99.90
20957;DHT22;10637;47.970;7.830;2024-01-27T08:32:27;2.30;99.90
20957;DHT22;10637;47.970;7.830;2024-01-27T08:37:29;3.40;99.90
20957;DHT22;10637;47.970;7.830;2024-01-27T08:42:31;6.00;99.90
20957;DHT22;10637;47.970;7.830;2024-01-27T08:47:33;8.60;99.90
20957;DHT22;10637;47.970;7.830;2024-01-27T08:52:35;10.00;99.90
20957;DHT22;10637;47.970;7.830;2024-01-27T08:57:39;11.20;99.90
20957;DHT22;10637;47.970;7.830;2024-01-27T09:02:45;12.10;99.90
20957;DHT22;10637;47.970;7.830;2024-01-27T09:07:47;12.10;99.90
20957;DHT22;10637;47.970;7.830;2024-01-27T09:12:48;10.40;99.90
20957;DHT22;10637;47.970;7.830;2024-01-27T09:17:50;8.30;99.90
20957;DHT22;10637;47.970;7.830;2024-01-27T09:22:53;6.90;99.90
20957;DHT22;10637;47.970;7.830;2024-01-27T09:27:54;6.10;99.90
20957;DHT22;10637;47.970;7.830;2024-01-27T09:32:56;5.90;99.90
20957;DHT22;10637;47.970;7.830;2024-01-27T09:37:58;5.70;99.90
20957;DHT22;10637;47.970;7.830;2024-01-27T09:43:00;6.30;99.90
20957;DHT22;10637;47.970;7.830;2024-01-27T09:48:03;9.70;99.90
20957;DHT22;10637;47.970;7.830;2024-01-27T09:53:07;12.80;99.90
20957;DHT22;10637;47.970;7.830;2024-01-27T09:58:11;14.40;99.90
20957;DHT22;10637;47.970;7.830;2024-01-27T10:03:13;15.30;99.90
20957;DHT22;10637;47.970;7.830;2024-01-27T10:08:15;15.90;99.90
20957;DHT22;10637;47.970;7.830;2024-01-27T10:13:17;16.60;99.90
20957;DHT22;10637;47.970;7.830;2024-01-27T10:18:19;17.30;99.90
20957;DHT22;10637;47.970;7.830;2024-01-27T10:23:21;17.70;99.90
20957;DHT22;10637;47.970;7.830;2024-01-27T10:28:23;17.80;99.90
20957;DHT22;10637;47.970;7.830;2024-01-27T10:33:25;18.20;99.90
20957;DHT22;10637;47.970;7.830;2024-01-27T10:38:38;21.10;99.90
20957;DHT22;10637;47.970;7.830;2024-01-27T10:43:40;20.30;99.90
20957;DHT22;10637;47.970;7.830;2024-01-27T10:48:44;19.90;99.90
20957;DHT22;10637;47.970;7.830;2024-01-27T10:53:49;20.60;99.90
20957;DHT22;10637;47.970;7.830;2024-01-27T10:58:53;19.70;99.80
20957;DHT22;10637;47.970;7.830;2024-01-27T11:03:56;22.30;96.30
20957;DHT22;10637;47.970;7.830;2024-01-27T11:08:59;21.70;95.40
20957;DHT22;10637;47.970;7.830;2024-01-27T11:14:04;22.70;94.10
20957;DHT22;10637;47.970;7.830;2024-01-27T11:19:07;23.70;91.30
20957;DHT22;10637;47.970;7.830;2024-01-27T11:24:15;23.10;91.70
20957;DHT22;10637;47.970;7.830;2024-01-27T11:29:17;24.10;88.80
20957;DHT22;10637;47.970;7.830;2024-01-27T11:34:22;23.80;82.80
20957;DHT22;10637;47.970;7.830;2024-01-27T11:39:28;24.30;82.80
20957;DHT22;10637;47.970;7.830;2024-01-27T11:44:34;24.20;84.20
20957;DHT22;10637;47.970;7.830;2024-01-27T11:49:35;26.00;78.20
20957;DHT22;10637;47.970;7.830;2024-01-27T11:54:37;24.90;80.90
20957;DHT22;10637;47.970;7.830;2024-01-27T11:59:40;23.60;82.90
20957;DHT22;10637;47.970;7.830;2024-01-27T12:04:44;25.20;79.60
20957;DHT22;10637;47.970;7.830;2024-01-27T12:09:49;24.00;79.60
20957;DHT22;10637;47.970;7.830;2024-01-27T12:14:51;25.30;79.00
20957;DHT22;10637;47.970;7.830;2024-01-27T12:19:53;24.90;75.30
20957;DHT22;10637;47.970;7.830;2024-01-27T12:25:08;24.80;77.80
20957;DHT22;10637;47.970;7.830;2024-01-27T12:30:10;24.90;76.40
20957;DHT22;10637;47.970;7.830;2024-01-27T12:35:13;25.70;75.40
20957;DHT22;10637;47.970;7.830;2024-01-27T12:40:19;25.00;75.90
20957;DHT22;10637;47.970;7.830;2024-01-27T12:45:25;25.60;73.30
20957;DHT22;10637;47.970;7.830;2024-01-27T12:50:30;26.90;71.80
20957;DHT22;10637;47.970;7.830;2024-01-27T12:55:32;26.70;70.50
20957;DHT22;10637;47.970;7.830;2024-01-27T13:00:34;25.80;71.40
20957;DHT22;10637;47.970;7.830;2024-01-27T13:05:36;25.70;71.10
20957;DHT22;10637;47.970;7.830;2024-01-27T13:10:40;26.20;67.70
20957;DHT22;10637;47.970;7.830;2024-01-27T13:15:41;26.50;67.60
20957;DHT22;10637;47.970;7.830;2024-01-27T13:20:43;27.30;66.90
20957;DHT22;10637;47.970;7.830;2024-01-27T13:25:45;25.50;70.50
20957;DHT22;10637;47.970;7.830;2024-01-27T13:31:07;25.50;71.10
20957;DHT22;10637;47.970;7.830;2024-01-27T13:36:09;26.70;67.60
20957;DHT22;10637;47.970;7.830;2024-01-27T13:41:11;25.80;69.40
20957;DHT22;10637;47.970;7.830;2024-01-27T13:46:13;26.10;67.50
20957;DHT22;10637;47.970;7.830;2024-01-27T13:51:15;26.70;65.70
20957;DHT22;10637;47.970;7.830;2024-01-27T13:56:17;25.80;68.60
20957;DHT22;10637;47.970;7.830;2024-01-27T14:01:18;25.50;68.50
20957;DHT22;10637;47.970;7.830;2024-01-27T14:06:20;25.30;67.60
20957;DHT22;10637;47.970;7.830;2024-01-27T14:11:22;24.60;69.50
20957;DHT22;10637;47.970;7.830;2024-01-27T14:16:24;24.20;71.20
20957;DHT22;10637;47.970;7.830;2024-01-27T14:21:26;24.70;69.20
20957;DHT22;10637;47.970;7.830;2024-01-27T14:26:29;24.30;71.20
20957;DHT22;10637;47.970;7.830;2024-01-27T14:31:31;23.80;71.30
20957;DHT22;10637;47.970;7.830;2024-01-27T14:36:33;23.80;70.40
20957;DHT22;10637;47.970;7.830;2024-01-27T14:41:35;22.80;70.50
20957;DHT22;10637;47.970;7.830;2024-01-27T14:46:37;22.50;74.70
20957;DHT22;10637;47.970;7.830;2024-01-27T14:51:41;21.10;76.50
20957;DHT22;10637;47.970;7.830;2024-01-27T14:56:43;19.60;80.70
20957;DHT22;10637;47.970;7.830;2024-01-27T15:01:45;18.40;85.10
20957;DHT22;10637;47.970;7.830;2024-01-27T15:06:48;17.90;85.90
20957;DHT22;10637;47.970;7.830;2024-01-27T15:11:50;17.60;86.70
20957;DHT22;10637;47.970;7.830;2024-01-27T15:16:52;16.80;88.50
20957;DHT22;10637;47.970;7.830;2024-01-27T15:21:54;14.80;92.00
20957;DHT22;10637;47.970;7.830;2024-01-27T15:26:56;13.60;94.00
20957;DHT22;10637;47.970;7.830;2024-01-27T15:32:08;12.80;96.00
20957;DHT22;10637;47.970;7.830;2024-01-27T15:37:10;12.10;97.60
20957;DHT22;10637;47.970;7.830;2024-01-27T15:42:12;11.80;99.10
20957;DHT22;10637;47.970;7.830;2024-01-27T15:47:13;11.20;99.90
20957;DHT22;10637;47.970;7.830;2024-01-27T15:52:15;10.90;99.90
20957;DHT22;10637;47.970;7.830;2024-01-27T15:57:17;10.60;99.90
20957;DHT22;10637;47.970;7.830;2024-01-27T16:02:20;10.30;99.90
20957;DHT22;10637;47.970;7.830;2024-01-27T16:07:22;10.00;99.90
20957;DHT22;10637;47.970;7.830;2024-01-27T16:12:25;9.70;99.90
20957;DHT22;10637;47.970;7.830;2024-01-27T16:17:27;9.20;99.90
20957;DHT22;10637;47.970;7.830;2024-01-27T16:22:29;8.90;99.90
20957;DHT22;10637;47.970;7.830;2024-01-27T16:27:30;8.60;99.90
20957;DHT22;10637;47.970;7.830;2024-01-27T16:32:34;8.40;99.90
20957;DHT22;10637;47.970;7.830;2024-01-27T16:37:36;8.10;99.90
20957;DHT22;10637;47.970;7.830;2024-01-27T16:42:38;7.80;99.90
20957;DHT22;10637;47.970;7.830;2024-01-27T16:47:40;7.70;99.90
20957;DHT22;10637;47.970;7.830;2024-01-27T16:52:42;7.20;99.90
20957;DHT22;10637;47.970;7.830;2024-01-27T16:57:44;6.70;99.90
20957;DHT22;10637;47.970;7.830;2024-01-27T17:02:46;6.50;99.90
20957;DHT22;10637;47.970;7.830;2024-01-27T17:07:48;6.40;99.90
20957;DHT22;10637;47.970;7.830;2024-01-27T17:12:50;6.50;99.90
20957;DHT22;10637;47.970;7.830;2024-01-27T17:17:51;6.50;99.90
20957;DHT22;10637;47.970;7.830;2024-01-27T17:22:59;6.40;99.90
20957;DHT22;10637;47.970;7.830;2024-01-27T17:28:03;6.10;99.90
20957;DHT22;10637;47.970;7.830;2024-01-27T17:33:06;5.90;99.90
20957;DHT22;10637;47.970;7.830;2024-01-27T17:38:08;5.70;99.90
20957;DHT22;10637;47.970;7.830;2024-01-27T17:43:09;5.70;99.90
20957;DHT22;10637;47.970;7.830;2024-01-27T17:48:13;5.50;99.90
20957;DHT22;10637;47.970;7.830;2024-01-27T17:53:15;5.30;99.90
20957;DHT22;10637;47.970;7.830;2024-01-27T17:58:18;5.40;99.90
20957;DHT22;10637;47.970;7.830;2024-01-27T18:03:21;5.30;99.90
20957;DHT22;10637;47.970;7.830;2024-01-27T18:08:24;5.10;99.90
20957;DHT22;10637;47.970;7.830;2024-01-27T18:13:25;5.30;99.90
20957;DHT22;10637;47.970;7.830;2024-01-27T18:18:27;5.40;99.90
20957;DHT22;10637;47.970;7.830;2024-01-27T18:23:29;5.20;99.90
20957;DHT22;10637;47.970;7.830;2024-01-27T18:28:31;5.20;99.90
20957;DHT22;10637;47.970;7.830;2024-01-27T18:33:33;5.20;99.90
20957;DHT22;10637;47.970;7.830;2024-01-27T18:38:35;5.30;99.90
20957;DHT22;10637;47.970;7.830;2024-01-27T18:43:38;5.10;99.90
20957;DHT22;10637;47.970;7.830;2024-01-27T18:48:40;5.00;99.90
20957;DHT22;10637;47.970;7.830;2024-01-27T18:53:43;5.30;99.90
20957;DHT22;10637;47.970;7.830;2024-01-27T18:58:47;5.30;99.90
20957;DHT22;10637;47.970;7.830;2024-01-27T19:03:49;5.10;99.90
20957;DHT22;10637;47.970;7.830;2024-01-27T19:08:51;5.20;99.90
20957;DHT22;10637;47.970;7.830;2024-01-27T19:13:53;5.30;99.90
20957;DHT22;10637;47.970;7.830;2024-01-27T19:18:54;5.30;99.90
20957;DHT22;10637;47.970;7.830;2024-01-27T19:23:57;5.20;99.90
20957;DHT22;10637;47.970;7.830;2024-01-27T19:28:58;5.00;99.90
20957;DHT22;10637;47.970;7.830;2024-01-27T19:34:00;4.70;99.90
20957;DHT22;10637;47.970;7.830;2024-01-27T19:39:02;4.60;99.90
20957;DHT22;10637;47.970;7.830;2024-01-27T19:44:04;4.50;99.90
20957;DHT22;10637;47.970;7.830;2024-01-27T19:49:06;4.40;99.90
20957;DHT22;10637;47.970;7.830;2024-01-27T19:54:08;4.40;99.90
20957;DHT22;10637;47.970;7.830;2024-01-27T19:59:10;4.50;99.90
20957;DHT22;10637;47.970;7.830;2024-01-27T20:04:12;4.40;99.90
20957;DHT22;10637;47.970;7.830;2024-01-27T20:09:14;4.30;99.90
20957;DHT22;10637;47.970;7.830;2024-01-27T20:14:17;4.40;99.90
20957;DHT22;10637;47.970;7.830;2024-01-27T20:19:19;4.20;99.90
20957;DHT22;10637;47.970;7.830;2024-01-27T20:24:23;4.20;99.90
20957;DHT22;10637;47.970;7.830;2024-01-27T20:29:25;4.30;99.90
20957;DHT22;10637;47.970;7.830;2024-01-27T20:34:27;4.40;99.90
20957;DHT22;10637;47.970;7.830;2024-01-27T20:39:29;4.40;99.90
20957;DHT22;10637;47.970;7.830;2024-01-27T20:44:30;4.20;99.90
20957;DHT22;10637;47.970;7.830;2024-01-27T20:49:32;4.10;99.90
20957;DHT22;10637;47.970;7.830;2024-01-27T20:54:35;4.10;99.90
20957;DHT22;10637;47.970;7.830;2024-01-27T20:59:37;3.90;99.90
20957;DHT22;10637;47.970;7.830;2024-01-27T21:04:38;3.90;99.90
20957;DHT22;10637;47.970;7.830;2024-01-27T21:09:40;3.80;99.90
20957;DHT22;10637;47.970;7.830;2024-01-27T21:14:44;3.80;99.90
20957;DHT22;10637;47.970;7.830;2024-01-27T21:19:46;3.80;99.90
20957;DHT22;10637;47.970;7.830;2024-01-27T21:24:50;3.70;99.90
20957;DHT22;10637;47.970;7.830;2024-01-27T21:29:52;3.70;99.90
20957;DHT22;10637;47.970;7.830;2024-01-27T21:34:55;3.20;99.90
20957;DHT22;10637;47.970;7.830;2024-01-27T21:39:57;3.10;99.90
20957;DHT22;10637;47.970;7.830;2024-01-27T21:45:01;3.10;99.90
20957;DHT22;10637;47.970;7.830;2024-01-27T21:50:03;3.30;99.90
20957;DHT22;10637;47.970;7.830;2024-01-27T21:55:05;3.10;99.90
20957;DHT22;10637;47.970;7.830;2024-01-27T22:00:08;3.00;99.90
20957;DHT22;10637;47.970;7.830;2024-01-27T22:05:13;3.20;99.90
20957;DHT22;10637;47.970;7.830;2024-01-27T22:10:15;3.30;99.90
20957;DHT22;10637;47.970;7.830;2024-01-27T22:15:18;3.30;99.90
20957;DHT22;10637;47.970;7.830;2024-01-27T22:20:20;3.30;99.90
20957;DHT22;10637;47.970;7.830;2024-01-27T22:25:22;3.20;99.90
20957;DHT22;10637;47.970;7.830;2024-01-27T22:30:24;2.80;99.90
20957;DHT22;10637;47.970;7.830;2024-01-27T22:35:26;3.00;99.90
20957;DHT22;10637;47.970;7.830;2024-01-27T22:40:29;3.10;99.90
20957;DHT22;10637;47.970;7.830;2024-01-27T22:45:31;3.20;99.90
20957;DHT22;10637;47.970;7.830;2024-01-27T22:50:33;3.20;99.90
20957;DHT22;10637;47.970;7.830;2024-01-27T22:55:35;2.90;99.90
20957;DHT22;10637;47.970;7.830;2024-01-27T23:00:37;2.80;99.90
20957;DHT22;10637;47.970;7.830;2024-01-27T23:05:41;2.80;99.90
20957;DHT22;10637;47.970;7.830;2024-01-27T23:10:43;2.80;99.90
20957;DHT22;10637;47.970;7.830;2024-01-27T23:15:45;2.80;99.90
20957;DHT22;10637;47.970;7.830;2024-01-27T23:20:47;2.90;99.90
20957;DHT22;10637;47.970;7.830;2024-01-27T23:25:49;2.90;99.90
20957;DHT22;10637;47.970;7.830;2024-01-27T23:30:51;2.90;99.90
20957;DHT22;10637;47.970;7.830;2024-01-27T23:35:53;2.80;99.90
20957;DHT22;10637;47.970;7.830;2024-01-27T23:40:56;2.90;99.90
20957;DHT22;10637;47.970;7.830;2024-01-27T23:45:58;3.20;99.90
20957;DHT22;10637;47.970;7.830;2024-01-27T23:51:00;3.20;99.90
20957;DHT22;10637;47.970;7.830;2024-01-27T23:56:02;3.00;99.90
